Time;durP1;ratioP1;P1;durP2;ratioP2;P2;SDS_P1;SDS_P2;PMS_P1;PMS_P2;Temp;Humidity;BMP_temperature;BMP_pressure;BME280_temperature;BME280_humidity;BME280_pressure;Samples;Min_cycle;Max_cycle;Signal;HPM_P1;HPM_P2
2022/11/03 00:01:46;;;;;;;27.92;18.02;;;;;;;11.03;100.00;101125.22;6176026;22;20031;-66
2022/11/03 00:04:12;;;;;;;;;;;;;;;11.01;100.00;101135.25;6176883;23;20005;-67
2022/11/03 00:06:39;;;;;;;27.60;18.15;;;;;;;10.82;100.00;101105.41;6176098;23;19944;-66
2022/11/03 00:09:07;;;;;;;28.65;18.30;;;;;;;10.95;100.00;101134.84;6150047;22;20020;-66
2022/11/03 00:11:34;;;;;;;27.08;18.15;;;;;;;11.00;100.00;101133.50;6176241;22;20072;-66
2022/11/03 00:14:00;;;;;;;29.40;17.92;;;;;;;10.99;100.00;101137.19;6149592;23;20437;-66
2022/11/03 00:16:25;;;;;;;27.25;18.45;;;;;;;11.01;100.00;101140.59;6176218;22;20013;-66
2022/11/03 00:18:52;;;;;;;26.70;17.90;;;;;;;11.01;100.00;101123.63;6175904;23;20016;-66
2022/11/03 00:21:18;;;;;;;24.00;16.88;;;;;;;11.04;100.00;101126.97;6149875;22;20008;-67
2022/11/03 00:23:44;;;;;;;27.38;17.75;;;;;;;11.04;100.00;101128.78;6176044;23;20449;-67
2022/11/03 00:26:20;;;;;;;25.42;17.67;;;;;;;11.04;100.00;101120.72;6175063;23;20128;-67
2022/11/03 00:28:47;;;;;;;28.83;16.98;;;;;;;11.04;100.00;101108.16;6175834;23;20138;-67
2022/11/03 00:31:15;;;;;;;22.90;17.38;;;;;;;10.96;100.00;101098.97;6175916;23;20482;-77
2022/11/03 00:33:41;;;;;;;25.67;16.90;;;;;;;11.05;100.00;101109.00;6176650;23;20009;-77
2022/11/03 00:36:11;;;;;;;29.27;18.42;;;;;;;11.04;100.00;101104.63;6150103;23;20545;-77
2022/11/03 00:38:36;;;;;;;25.17;17.08;;;;;;;10.94;100.00;101088.34;6177625;22;20005;-77
2022/11/03 00:41:58;;;;;;;24.73;18.30;;;;;;;11.00;100.00;101103.16;6153215;23;20063;-77
2022/11/03 00:44:24;;;;;;;25.15;16.58;;;;;;;10.98;100.00;101105.94;6177946;23;20681;-76
2022/11/03 00:46:49;;;;;;;26.05;17.55;;;;;;;10.94;100.00;101117.03;6153772;23;20016;-77
2022/11/03 00:49:14;;;;;;;22.60;16.48;;;;;;;10.88;100.00;101122.88;6178727;23;20016;-78
2022/11/03 00:51:40;;;;;;;24.42;17.52;;;;;;;10.84;100.00;101122.22;6175992;23;20005;-77
2022/11/03 00:54:06;;;;;;;27.33;17.67;;;;;;;10.84;100.00;101127.59;6149688;23;20009;-77
2022/11/03 00:56:39;;;;;;;24.20;17.08;;;;;;;10.80;100.00;101122.59;6175984;23;20073;-76
2022/11/03 00:59:44;;;;;;;25.70;17.83;;;;;;;10.76;100.00;101119.28;6149170;22;20349;-77
2022/11/03 01:02:09;;;;;;;24.83;17.88;;;;;;;10.73;100.00;101114.16;6149614;23;20759;-77
2022/11/03 01:07:19;;;;;;;25.38;18.10;;;;;;;10.55;100.00;101099.44;6176141;23;20035;-77
2022/11/03 01:09:44;;;;;;;28.00;17.85;;;;;;;10.61;100.00;101120.44;6149833;22;20411;-77
2022/11/03 01:12:18;;;;;;;25.95;17.30;;;;;;;10.55;100.00;101114.69;6175943;23;20028;-77
2022/11/03 01:14:49;;;;;;;26.63;16.63;;;;;;;10.45;100.00;101102.94;6176115;22;20024;-77
2022/11/03 01:17:23;;;;;;;24.08;17.45;;;;;;;10.46;100.00;101112.69;6175906;22;20001;-77
2022/11/03 01:19:49;;;;;;;23.15;16.90;;;;;;;10.44;100.00;101110.13;6175990;23;20024;-78
2022/11/03 01:22:15;;;;;;;22.48;15.45;;;;;;;10.30;100.00;101086.19;6176334;22;20005;-66
2022/11/03 01:24:41;;;;;;;23.65;17.02;;;;;;;10.30;100.00;101093.34;6176443;23;20062;-66
2022/11/03 01:27:12;;;;;;;29.48;17.17;;;;;;;10.39;100.00;101115.00;6146231;23;20054;-67
2022/11/03 01:29:37;;;;;;;24.73;17.13;;;;;;;10.36;100.00;101114.34;6119550;23;20012;-67
2022/11/03 01:32:03;;;;;;;27.60;17.85;;;;;;;10.34;100.00;101111.78;6145621;23;20006;-67
2022/11/03 01:34:29;;;;;;;29.65;18.80;;;;;;;10.31;100.00;101103.97;6145385;23;20001;-67
2022/11/03 01:36:55;;;;;;;25.35;18.10;;;;;;;10.20;100.00;101093.19;6145493;23;20020;-67
2022/11/03 01:39:20;;;;;;;26.00;17.13;;;;;;;10.29;100.00;101103.22;6145457;23;20066;-67
2022/11/03 01:41:49;;;;;;;23.15;17.58;;;;;;;10.27;100.00;101109.66;6145515;23;20093;-67
2022/11/03 01:44:15;;;;;;;26.42;17.50;;;;;;;10.29;100.00;101113.94;6145194;23;20087;-67
2022/11/03 01:46:48;;;;;;;25.42;17.45;;;;;;;10.27;100.00;101113.22;6145310;23;20076;-67
2022/11/03 01:49:18;;;;;;;24.65;17.27;;;;;;;10.28;100.00;101101.50;6145652;23;20006;-67
2022/11/03 01:51:48;;;;;;;26.33;16.88;;;;;;;10.30;100.00;101104.94;6145735;23;20002;-67
2022/11/03 01:54:18;;;;;;;25.45;16.48;;;;;;;10.38;100.00;101102.53;6146089;23;20090;-67
2022/11/03 01:56:47;;;;;;;21.70;16.15;;;;;;;10.36;100.00;101095.56;6146165;23;20010;-67
2022/11/03 01:59:16;;;;;;;24.17;15.40;;;;;;;10.30;100.00;101096.91;6145741;23;20010;-67
2022/11/03 02:01:43;;;;;;;22.17;16.42;;;;;;;10.24;100.00;101094.66;6146095;23;20082;-67
2022/11/03 02:04:19;;;;;;;27.92;16.60;;;;;;;10.22;100.00;101091.22;6145811;23;20006;-66
2022/11/03 02:06:52;;;;;;;23.42;15.48;;;;;;;10.25;100.00;101101.72;6120003;23;20450;-67
2022/11/03 02:09:18;;;;;;;24.35;16.58;;;;;;;10.27;100.00;101117.69;6145445;23;20011;-67
2022/11/03 02:14:27;;;;;;;25.17;17.13;;;;;;;10.23;100.00;101109.06;6145185;23;20382;-67
2022/11/03 02:16:58;;;;;;;28.58;17.08;;;;;;;10.16;100.00;101113.13;6145233;23;20002;-67
2022/11/03 02:19:40;;;;;;;24.17;16.80;;;;;;;10.09;100.00;101093.09;6145343;23;20422;-67
2022/11/03 02:22:19;;;;;;;25.83;16.63;;;;;;;10.02;100.00;101090.94;6118397;23;20056;-67
2022/11/03 02:25:13;;;;;;;23.05;15.95;;;;;;;10.09;100.00;101117.22;6146150;23;20018;-67
2022/11/03 02:27:40;;;;;;;25.25;15.77;;;;;;;9.81;100.00;101058.56;6103563;23;20919;-67
2022/11/03 02:30:06;;;;;;;23.52;16.33;;;;;;;10.08;100.00;101110.16;6174718;23;20378;-67
2022/11/03 02:32:44;;;;;;;22.88;16.30;;;;;;;10.09;100.00;101097.63;6174759;22;20431;-67
2022/11/03 02:35:27;;;;;;;23.50;16.05;;;;;;;10.11;100.00;101106.41;6175168;22;20142;-67
2022/11/03 02:37:56;;;;;;;23.13;16.73;;;;;;;10.14;100.00;101111.53;6174543;23;20084;-67
2022/11/03 02:40:31;;;;;;;25.25;15.93;;;;;;;10.12;100.00;101125.06;6174853;23;20005;-67
2022/11/03 02:42:59;;;;;;;23.50;16.67;;;;;;;9.86;100.00;101072.47;6174425;23;20005;-67
2022/11/03 02:45:26;;;;;;;28.52;16.85;;;;;;;9.95;100.00;101087.88;6148275;22;20004;-67
2022/11/03 02:47:55;;;;;;;22.30;16.80;;;;;;;10.10;100.00;101112.75;6148277;22;20346;-67
2022/11/03 02:50:26;;;;;;;24.20;16.58;;;;;;;10.08;100.00;101120.03;6148421;23;20448;-67
2022/11/03 02:52:52;;;;;;;24.05;17.10;;;;;;;10.07;100.00;101119.19;6174325;23;20001;-67
2022/11/03 02:55:32;;;;;;;24.17;17.30;;;;;;;10.04;100.00;101118.50;6148107;23;20032;-67
2022/11/03 02:58:09;;;;;;;23.48;15.75;;;;;;;10.02;100.00;101128.47;6174312;23;20005;-67
2022/11/03 03:00:44;;;;;;;26.92;17.60;;;;;;;9.84;100.00;101111.06;6174793;23;20448;-67
2022/11/03 03:03:34;;;;;;;26.33;15.73;;;;;;;9.91;100.00;101118.56;6174614;22;20005;-67
2022/11/03 03:06:07;;;;;;;21.63;15.25;;;;;;;9.82;100.00;101119.22;6174874;23;20032;-67
2022/11/03 03:08:34;;;;;;;23.50;16.52;;;;;;;9.86;100.00;101133.25;6175074;23;20017;-67
2022/11/03 03:11:02;;;;;;;25.67;16.27;;;;;;;9.72;100.00;101114.63;6175076;23;20005;-67
2022/11/03 03:13:27;;;;;;;22.65;16.10;;;;;;;9.76;100.00;101134.84;6174778;23;20009;-67
2022/11/03 03:16:10;;;;;;;27.55;17.67;;;;;;;9.73;100.00;101133.25;6148256;23;20452;-67
2022/11/03 03:18:50;;;;;;;24.08;16.48;;;;;;;9.73;100.00;101132.38;6148806;23;20012;-67
2022/11/03 03:21:22;;;;;;;27.80;16.13;;;;;;;9.68;100.00;101132.75;6174844;23;20005;-67
2022/11/03 03:24:12;;;;;;;22.90;15.80;;;;;;;9.60;100.00;101126.19;6148665;22;20013;-67
2022/11/03 03:26:45;;;;;;;22.60;16.52;;;;;;;9.69;100.00;101142.47;6174093;23;20430;-67
2022/11/03 03:29:18;;;;;;;26.95;16.15;;;;;;;9.59;100.00;101127.16;6149068;23;20660;-67
2022/11/03 03:31:50;;;;;;;24.08;16.83;;;;;;;9.49;100.00;101118.94;6175058;23;20436;-67
2022/11/03 03:34:18;;;;;;;25.40;17.38;;;;;;;9.42;100.00;101106.97;6175198;22;20008;-67
2022/11/03 03:36:47;;;;;;;24.40;17.48;;;;;;;9.56;100.00;101128.25;6176770;23;20008;-78
2022/11/03 03:39:15;;;;;;;24.98;16.60;;;;;;;9.58;100.00;101136.19;6178883;23;20434;-78
2022/11/03 03:41:43;;;;;;;27.05;17.15;;;;;;;9.52;100.00;101133.94;6178835;23;20009;-77
2022/11/03 03:44:10;;;;;;;20.95;15.82;;;;;;;9.47;100.00;101131.56;6178983;23;20011;-78
2022/11/03 03:46:50;;;;;;;24.85;16.45;;;;;;;9.37;100.00;101127.81;6178298;23;20429;-77
2022/11/03 03:49:16;;;;;;;24.83;16.83;;;;;;;9.18;100.00;101103.31;6178830;22;20005;-77
2022/11/03 03:51:43;;;;;;;21.35;16.10;;;;;;;9.28;100.00;101131.13;6178886;23;20001;-77
2022/11/03 03:54:08;;;;;;;24.75;15.77;;;;;;;9.24;100.00;101133.19;6178538;23;20518;-77
2022/11/03 03:56:52;;;;;;;25.13;16.27;;;;;;;9.18;100.00;101133.59;6178592;23;20092;-78
2022/11/03 03:59:17;;;;;;;26.27;17.15;;;;;;;9.13;100.00;101143.75;6175573;23;20005;-67
2022/11/03 04:01:43;;;;;;;23.45;15.70;;;;;;;9.02;100.00;101132.06;6175661;23;20012;-77
2022/11/03 04:04:08;;;;;;;22.38;15.35;;;;;;;9.03;100.00;101133.81;6175658;23;20033;-78
2022/11/03 04:06:33;;;;;;;22.63;16.23;;;;;;;9.03;100.00;101140.00;6175814;23;20002;-78
2022/11/03 04:08:59;;;;;;;22.83;15.00;;;;;;;8.96;100.00;101138.72;6175643;23;20005;-77
2022/11/03 04:22:21;;;;;;;25.90;16.35;;;;;;;8.59;100.00;101111.88;6175754;23;20020;-78
2022/11/03 04:24:49;;;;;;;21.58;15.85;;;;;;;8.56;100.00;101109.41;6175218;23;20025;-77
2022/11/03 04:27:17;;;;;;;21.48;15.77;;;;;;;8.61;100.00;101131.38;6175569;23;20339;-78
2022/11/03 04:29:42;;;;;;;23.67;15.57;;;;;;;8.51;100.00;101120.41;6149379;23;20013;-78
2022/11/03 04:32:16;;;;;;;26.42;17.75;;;;;;;8.42;100.00;101104.13;6149653;23;20015;-78
2022/11/03 04:34:44;;;;;;;23.58;16.55;;;;;;;8.48;100.00;101125.13;6175911;22;20338;-78
2022/11/03 04:37:11;;;;;;;21.92;15.52;;;;;;;8.33;100.00;101110.09;6175244;23;20009;-78
2022/11/03 04:39:37;;;;;;;26.83;17.05;;;;;;;8.39;100.00;101125.72;6149570;22;20009;-78
2022/11/03 04:42:16;;;;;;;22.92;15.15;;;;;;;8.21;100.00;101111.72;6149489;23;20051;-78
2022/11/03 04:44:41;;;;;;;24.77;16.05;;;;;;;8.25;100.00;101120.41;6175560;22;20085;-78
2022/11/03 04:47:10;;;;;;;26.48;16.33;;;;;;;8.27;100.00;101134.53;6149200;22;20045;-78
2022/11/03 04:49:36;;;;;;;25.23;15.75;;;;;;;8.21;100.00;101134.91;6175270;23;20036;-78
2022/11/03 04:52:01;;;;;;;21.85;15.75;;;;;;;8.16;100.00;101131.69;6175626;23;20039;-78
2022/11/03 04:54:27;;;;;;;23.33;15.98;;;;;;;8.14;100.00;101129.13;6178317;23;20013;-78
2022/11/03 04:56:53;;;;;;;28.08;17.13;;;;;;;8.11;100.00;101128.44;6151528;22;20805;-78
2022/11/03 04:59:18;;;;;;;30.20;18.90;;;;;;;8.06;100.00;101119.88;6177414;23;20008;-67
2022/11/03 05:01:45;;;;;;;28.17;18.42;;;;;;;8.03;100.00;101125.44;6175171;23;20005;-67
2022/11/03 05:04:13;;;;;;;29.17;18.40;;;;;;;8.00;100.00;101141.66;6175213;22;20501;-67
2022/11/03 05:06:39;;;;;;;23.23;16.25;;;;;;;7.89;100.00;101120.09;6151567;22;20008;-78
2022/11/03 05:09:13;;;;;;;21.75;14.60;;;;;;;7.92;100.00;101123.44;6178788;22;20694;-78
2022/11/03 05:11:41;;;;;;;24.00;15.47;;;;;;;7.66;100.00;101083.31;6179011;23;20748;-78
2022/11/03 05:14:21;;;;;;;27.55;14.65;;;;;;;8.03;100.00;101133.44;6180755;23;20660;-77
2022/11/03 05:16:49;;;;;;;31.17;17.38;;;;;;;7.99;100.00;101113.19;6149925;23;20008;-78
2022/11/03 05:19:19;;;;;;;28.15;17.98;;;;;;;8.07;100.00;101125.13;6149735;23;20013;-78
2022/11/03 05:21:48;;;;;;;32.25;18.80;;;;;;;8.23;100.00;101135.69;6176371;22;20147;-78
2022/11/03 05:24:15;;;;;;;29.02;19.38;;;;;;;8.26;100.00;101131.00;6149810;23;20021;-78
2022/11/03 05:26:41;;;;;;;28.10;19.33;;;;;;;8.35;100.00;101132.25;6175660;22;20096;-78
2022/11/03 05:29:37;;;;;;;28.75;19.02;;;;;;;8.40;100.00;101140.78;6176397;22;20001;-78
2022/11/03 05:32:13;;;;;;;30.13;19.85;;;;;;;8.44;100.00;101144.97;6173114;23;20109;-78
2022/11/03 05:34:45;;;;;;;35.92;19.10;;;;;;;8.50;100.00;101155.28;6174765;23;20001;-78
2022/11/03 05:37:29;;;;;;;31.90;20.25;;;;;;;8.39;100.00;101120.38;6149389;23;20076;-77
2022/11/03 05:39:59;;;;;;;;;;;;;;;8.58;100.00;101148.44;6149840;22;20368;-78
2022/11/03 05:42:36;;;;;;;29.30;18.63;;;;;;;8.63;100.00;101151.69;6175857;23;19911;-78
2022/11/03 05:45:14;;;;;;;30.52;19.90;;;;;;;8.71;100.00;101148.50;6174833;22;20008;-78
2022/11/03 05:47:40;;;;;;;28.20;18.35;;;;;;;8.55;100.00;101127.25;6175460;22;20430;-78
2022/11/03 05:50:15;;;;;;;26.55;18.83;;;;;;;8.78;100.00;101155.16;6148849;23;20013;-78
2022/11/03 05:52:42;;;;;;;26.00;18.73;;;;;;;8.71;100.00;101143.16;6175407;22;20425;-77
2022/11/03 06:18:37;;;;;;;31.25;21.75;;;;;;;9.43;100.00;101177.41;5141678;27;20374;-66
2022/11/03 06:21:16;;;;;;;30.25;21.17;;;;;;;9.39;100.00;101173.22;5123262;27;20498;-67
2022/11/03 06:23:42;;;;;;;30.52;21.60;;;;;;;9.49;100.00;101185.00;5135684;27;20022;-67
2022/11/03 06:26:24;;;;;;;32.75;21.83;;;;;;;9.47;100.00;101174.41;5131226;27;20027;-67
2022/11/03 06:28:50;;;;;;;34.50;22.67;;;;;;;9.49;100.00;101174.31;5141907;27;20519;-66
2022/11/03 06:31:29;;;;;;;32.05;21.88;;;;;;;9.54;100.00;101177.53;5132285;27;20035;-66
2022/11/03 06:33:57;;;;;;;35.92;23.23;;;;;;;9.57;100.00;101166.59;5142726;27;20030;-65
2022/11/03 06:36:25;;;;;;;36.97;23.33;;;;;;;9.68;100.00;101177.41;5138127;27;20034;-65
2022/11/03 06:38:56;;;;;;;36.95;24.38;;;;;;;9.72;100.00;101185.13;5118395;27;20031;-66
2022/11/03 06:41:31;;;;;;;40.08;26.00;;;;;;;9.73;100.00;101188.63;5106230;28;20048;-69
2022/11/03 06:44:00;;;;;;;42.67;25.85;;;;;;;9.78;100.00;101192.75;5103904;28;20038;-69
2022/11/03 06:46:25;;;;;;;38.20;24.45;;;;;;;9.80;100.00;101184.59;5112739;28;20438;-69
2022/11/03 06:48:54;;;;;;;45.53;26.05;;;;;;;9.85;100.00;101190.47;5119550;27;20047;-69
2022/11/03 06:51:32;;;;;;;38.63;24.60;;;;;;;9.85;100.00;101183.28;5121548;27;20019;-69
2022/11/03 06:53:59;;;;;;;42.58;26.42;;;;;;;9.93;100.00;101193.47;5116625;27;20481;-69
2022/11/03 06:56:28;;;;;;;39.00;24.73;;;;;;;9.98;100.00;101205.56;5135360;27;20071;-70
2022/11/03 06:58:55;;;;;;;41.33;26.35;;;;;;;10.04;100.00;101202.47;5103423;28;20042;-69
2022/11/03 07:01:25;;;;;;;53.67;26.77;;;;;;;10.04;100.00;101188.19;5103615;28;20020;-70
2022/11/03 07:04:15;;;;;;;54.15;27.63;;;;;;;10.01;100.00;101185.72;5103305;28;20051;-70
2022/11/03 07:06:42;;;;;;;42.08;25.70;;;;;;;10.07;100.00;101201.41;5103176;28;20039;-69
2022/11/03 07:09:21;;;;;;;39.55;25.25;;;;;;;10.04;100.00;101182.81;5102719;28;20036;-69
2022/11/03 07:11:49;;;;;;;45.15;26.25;;;;;;;10.09;100.00;101197.63;5103179;28;20394;-70
2022/11/03 07:14:18;;;;;;;49.78;26.75;;;;;;;10.10;100.00;101210.09;5102968;28;20032;-69
2022/11/03 07:17:11;;;;;;;40.15;25.95;;;;;;;10.14;100.00;101203.53;5103190;28;20044;-69
2022/11/03 07:19:42;;;;;;;47.08;27.20;;;;;;;10.18;100.00;101202.34;5087405;28;20040;-70
2022/11/03 07:22:21;;;;;;;51.67;29.00;;;;;;;10.21;100.00;101206.63;5089339;28;20039;-70
2022/11/03 07:24:51;;;;;;;59.15;29.65;;;;;;;10.15;100.00;101194.53;5089529;28;20383;-70
2022/11/03 07:27:28;;;;;;;47.20;29.85;;;;;;;10.24;100.00;101201.91;5089571;28;20495;-70
2022/11/03 07:29:59;;;;;;;46.97;29.48;;;;;;;10.27;100.00;101195.47;5089599;28;20063;-70
2022/11/03 07:32:30;;;;;;;52.70;27.83;;;;;;;10.31;100.00;101202.31;5087726;28;20031;-70
2022/11/03 07:35:19;;;;;;;43.55;27.88;;;;;;;10.33;100.00;101189.66;5089768;28;20487;-69
2022/11/03 07:37:46;;;;;;;46.80;27.65;;;;;;;10.30;100.00;101171.97;5088211;28;20264;-70
2022/11/03 07:40:22;;;;;;;49.45;29.02;;;;;;;10.42;100.00;101186.31;5089227;28;20032;-69
2022/11/03 07:42:49;;;;;;;58.00;29.88;;;;;;;10.42;100.00;101181.78;5088983;28;20036;-66
2022/11/03 07:45:32;;;;;;;46.50;28.65;;;;;;;10.52;100.00;101182.84;5089105;28;20028;-66
2022/11/03 07:48:04;;;;;;;52.45;32.03;;;;;;;10.49;100.00;101175.03;5089331;28;20492;-66
2022/11/03 07:50:30;;;;;;;58.08;30.40;;;;;;;10.51;100.00;101178.44;5088962;28;20020;-66
2022/11/03 07:52:55;;;;;;;56.78;29.98;;;;;;;10.56;100.00;101181.63;5088582;28;20149;-65
2022/11/03 07:55:20;;;;;;;43.85;29.23;;;;;;;10.58;100.00;101173.47;5087610;28;20028;-67
2022/11/03 07:57:47;;;;;;;49.47;29.60;;;;;;;10.51;100.00;101167.69;5088719;28;20509;-66
2022/11/03 08:00:21;;;;;;;55.83;30.30;;;;;;;10.56;100.00;101170.03;5089424;28;20389;-66
2022/11/03 08:02:56;;;;;;;45.53;29.45;;;;;;;10.59;100.00;101170.69;5094672;28;20039;-66
2022/11/03 08:05:21;;;;;;;50.03;30.98;;;;;;;10.67;100.00;101178.13;5087439;28;20016;-67
2022/11/03 08:07:46;;;;;;;48.97;29.73;;;;;;;10.67;100.00;101173.63;5088571;28;20044;-66
2022/11/03 08:10:12;;;;;;;49.03;30.92;;;;;;;10.73;100.00;101175.00;5088667;28;20050;-66
2022/11/03 08:12:38;;;;;;;55.05;29.92;;;;;;;10.72;100.00;101175.97;5100104;28;20035;-66
2022/11/03 08:15:04;;;;;;;68.30;31.20;;;;;;;10.75;100.00;101171.25;5108915;28;20023;-66
2022/11/03 08:17:29;;;;;;;60.00;32.47;;;;;;;10.74;100.00;101177.56;5108677;28;20706;-67
2022/11/03 08:19:55;;;;;;;58.63;33.13;;;;;;;10.72;100.00;101163.44;5108851;28;20080;-66
2022/11/03 08:22:22;;;;;;;54.72;31.63;;;;;;;10.73;100.00;101166.94;5098045;28;20040;-67
2022/11/03 08:24:47;;;;;;;51.28;30.48;;;;;;;10.83;100.00;101176.88;5086905;28;20115;-66
2022/11/03 08:27:12;;;;;;;60.45;32.10;;;;;;;10.80;100.00;101163.69;5108110;28;20115;-66
2022/11/03 08:29:38;;;;;;;55.25;34.17;;;;;;;10.84;100.00;101164.34;5107773;28;20028;-66
2022/11/03 08:32:03;;;;;;;59.88;32.65;;;;;;;10.78;100.00;101143.31;5108382;28;20401;-67
2022/11/03 08:34:29;;;;;;;56.05;32.83;;;;;;;10.88;100.00;101176.53;5108174;28;20469;-65
2022/11/03 08:36:54;;;;;;;51.17;31.50;;;;;;;10.86;100.00;101159.69;5108757;28;20079;-66
2022/11/03 08:39:20;;;;;;;46.42;29.60;;;;;;;10.94;100.00;101170.72;5108417;28;20034;-66
2022/11/03 08:41:45;;;;;;;47.47;29.73;;;;;;;10.87;100.00;101159.56;5107901;28;20032;-65
2022/11/03 08:44:11;;;;;;;46.08;28.33;;;;;;;10.88;100.00;101166.66;5108264;28;20031;-66
2022/11/03 08:46:36;;;;;;;46.97;29.20;;;;;;;10.93;100.00;101169.84;5108019;28;20053;-67
2022/11/03 08:49:01;;;;;;;46.92;29.58;;;;;;;10.96;100.00;101174.97;5101156;28;20026;-66
2022/11/03 08:51:27;;;;;;;48.35;28.35;;;;;;;10.97;100.00;101178.53;5104057;28;20474;-67
2022/11/03 08:53:53;;;;;;;43.35;28.30;;;;;;;10.95;100.00;101177.78;5107302;28;20032;-65
2022/11/03 08:56:20;;;;;;;44.00;28.58;;;;;;;10.95;100.00;101165.22;5108039;28;20359;-67
2022/11/03 08:58:46;;;;;;;45.45;27.95;;;;;;;10.96;100.00;101169.63;5108043;28;20505;-67
2022/11/03 09:01:12;;;;;;;41.90;27.73;;;;;;;10.95;100.00;101165.22;5107723;28;20062;-66
2022/11/03 09:03:38;;;;;;;45.25;29.10;;;;;;;11.03;100.00;101170.03;5107081;28;20027;-67
2022/11/03 09:06:04;;;;;;;48.97;29.85;;;;;;;10.95;100.00;101162.53;5107623;28;20045;-66
2022/11/03 09:08:29;;;;;;;46.90;29.67;;;;;;;11.04;100.00;101171.72;5107847;28;20039;-67
2022/11/03 09:10:55;;;;;;;50.40;29.15;;;;;;;11.11;100.00;101179.19;5108072;28;20043;-66
2022/11/03 09:13:20;;;;;;;46.97;29.45;;;;;;;11.08;100.00;101170.50;5106102;28;20049;-69
2022/11/03 09:15:46;;;;;;;51.33;31.98;;;;;;;11.09;100.00;101175.75;5107593;28;20126;-69
2022/11/03 09:18:11;;;;;;;51.55;32.28;;;;;;;11.12;100.00;101177.34;5107502;28;20051;-70
2022/11/03 09:20:36;;;;;;;46.88;30.27;;;;;;;11.10;100.00;101172.09;5107530;28;20028;-69
2022/11/03 09:23:02;;;;;;;49.30;27.38;;;;;;;11.13;100.00;101174.53;5107517;28;20031;-69
2022/11/03 09:25:27;;;;;;;45.35;26.75;;;;;;;11.11;100.00;101173.81;5107220;28;20027;-71
2022/11/03 09:27:53;;;;;;;38.08;24.50;;;;;;;11.18;100.00;101174.19;5107584;28;20038;-70
2022/11/03 09:30:19;;;;;;;37.67;23.80;;;;;;;11.07;100.00;101156.22;5107863;28;20016;-70
2022/11/03 09:32:46;;;;;;;37.13;24.08;;;;;;;11.08;100.00;101166.00;5106270;28;20724;-70
2022/11/03 09:35:13;;;;;;;34.63;22.75;;;;;;;11.05;100.00;101149.25;5107357;28;20374;-69
2022/11/03 09:37:39;;;;;;;33.67;22.95;;;;;;;11.10;100.00;101169.41;5105758;28;20020;-71
2022/11/03 09:40:06;;;;;;;34.63;22.92;;;;;;;11.11;100.00;101159.53;5107640;28;20351;-69
2022/11/03 09:42:33;;;;;;;39.58;26.30;;;;;;;10.94;100.00;101128.59;5107338;28;20165;-71
2022/11/03 09:44:59;;;;;;;35.13;24.63;;;;;;;11.02;100.00;101136.94;5107495;28;20072;-71
2022/11/03 09:47:32;;;;;;;36.30;24.88;;;;;;;11.05;100.00;101136.72;5107042;28;20034;-69
2022/11/03 09:49:58;;;;;;;35.30;25.38;;;;;;;11.06;100.00;101140.25;5105487;28;20023;-70
2022/11/03 09:52:24;;;;;;;35.63;24.95;;;;;;;11.08;100.00;101146.34;5105765;28;20058;-73
2022/11/03 09:54:52;;;;;;;42.33;26.75;;;;;;;10.96;100.00;101137.41;5103943;28;20023;-71
2022/11/03 09:57:17;;;;;;;36.28;24.63;;;;;;;11.02;100.00;101141.44;5104447;28;20031;-68
2022/11/03 09:59:47;;;;;;;36.00;23.23;;;;;;;10.99;100.00;101142.53;5103389;28;20355;-70
2022/11/03 10:02:18;;;;;;;30.20;22.05;;;;;;;10.98;100.00;101135.47;5108056;28;20023;-70
2022/11/03 10:04:44;;;;;;;28.40;20.77;;;;;;;10.94;100.00;101139.34;5106319;28;20034;-69
2022/11/03 10:07:10;;;;;;;32.42;21.23;;;;;;;10.95;100.00;101124.09;5087223;28;20032;-70
2022/11/03 10:09:36;;;;;;;30.38;21.25;;;;;;;10.94;100.00;101122.41;5087823;28;20498;-70
2022/11/03 10:12:01;;;;;;;28.67;20.38;;;;;;;10.98;100.00;101118.50;5086103;28;20088;-69
2022/11/03 10:14:27;;;;;;;33.05;22.88;;;;;;;10.95;100.00;101108.00;5086420;28;20459;-70
2022/11/03 10:16:59;;;;;;;30.70;22.25;;;;;;;11.01;100.00;101119.13;5096161;28;20042;-70
2022/11/03 10:19:25;;;;;;;31.00;22.33;;;;;;;10.98;100.00;101119.38;5093522;28;20023;-71
2022/11/03 10:21:51;;;;;;;31.73;23.75;;;;;;;11.00;100.00;101121.94;5104196;28;20523;-69
2022/11/03 10:24:17;;;;;;;36.83;24.77;;;;;;;11.04;100.00;101116.22;5104721;28;20027;-70
2022/11/03 10:26:51;;;;;;;35.88;23.55;;;;;;;11.02;100.00;101119.97;5103863;28;20027;-70
2022/11/03 10:29:18;;;;;;;37.17;24.63;;;;;;;11.00;100.00;101117.41;5094372;28;20084;-70
2022/11/03 10:31:49;;;;;;;31.58;22.27;;;;;;;10.98;100.00;101095.22;5103898;28;20031;-69
2022/11/03 10:34:36;;;;;;;34.78;23.38;;;;;;;10.97;100.00;101096.16;5111521;27;20114;-70
2022/11/03 10:37:23;;;;;;;33.05;24.05;;;;;;;11.02;100.00;101107.41;5096395;27;20032;-70
2022/11/03 10:39:51;;;;;;;32.63;22.60;;;;;;;10.95;100.00;101099.94;5123408;28;20032;-70
2022/11/03 10:42:22;;;;;;;31.95;22.67;;;;;;;10.99;100.00;101107.66;5114508;27;20035;-70
2022/11/03 10:44:52;;;;;;;33.13;22.05;;;;;;;10.93;100.00;101092.00;5112251;27;20538;-70
2022/11/03 10:47:25;;;;;;;35.25;24.35;;;;;;;11.00;100.00;101095.94;5101303;28;20020;-68
2022/11/03 10:49:50;;;;;;;35.13;24.05;;;;;;;10.98;100.00;101092.53;5093332;28;20016;-70
2022/11/03 10:52:25;;;;;;;33.17;24.13;;;;;;;11.03;100.00;101090.31;5118464;28;20034;-70
2022/11/03 10:54:51;;;;;;;;;;;;;;;11.06;100.00;101091.94;5123233;27;20207;-69
2022/11/03 10:57:17;;;;;;;31.98;22.42;;;;;;;10.95;100.00;101063.25;5100948;27;19920;-69
2022/11/03 10:59:45;;;;;;;33.85;23.45;;;;;;;11.04;100.00;101073.25;5126863;27;20118;-69
2022/11/03 11:02:24;;;;;;;35.53;24.17;;;;;;;11.03;100.00;101068.84;5106296;27;20020;-68
2022/11/03 11:04:58;;;;;;;33.90;24.05;;;;;;;11.05;100.00;101071.41;5100664;28;20058;-68
2022/11/03 11:07:30;;;;;;;37.10;25.00;;;;;;;11.06;100.00;101062.41;5109960;28;20030;-70
2022/11/03 11:09:55;;;;;;;33.08;23.83;;;;;;;11.01;100.00;101052.03;5099118;27;20039;-69
2022/11/03 11:12:24;;;;;;;32.85;23.10;;;;;;;11.05;100.00;101053.50;5116948;27;20543;-70
2022/11/03 11:14:58;;;;;;;33.75;24.55;;;;;;;11.06;100.00;101052.50;5113974;27;20470;-69
2022/11/03 11:17:42;;;;;;;33.92;24.02;;;;;;;11.06;100.00;101043.63;5106860;27;20554;-68
2022/11/03 11:20:17;;;;;;;33.58;24.48;;;;;;;11.16;100.00;101044.59;5115719;27;20027;-69
2022/11/03 11:22:42;;;;;;;39.03;25.90;;;;;;;11.17;100.00;101044.47;5111935;27;20410;-69
2022/11/03 11:25:08;;;;;;;33.25;24.67;;;;;;;11.17;100.00;101040.94;5112964;27;20114;-69
2022/11/03 11:27:39;;;;;;;34.13;24.33;;;;;;;11.20;100.00;101038.00;5109322;28;20019;-69
2022/11/03 11:30:28;;;;;;;38.35;25.20;;;;;;;11.18;100.00;101035.44;5111043;28;20114;-69
2022/11/03 11:33:11;;;;;;;35.08;24.70;;;;;;;11.22;100.00;101028.84;5106931;28;20031;-69
2022/11/03 11:35:37;;;;;;;36.07;25.30;;;;;;;11.23;100.00;101029.72;5124986;27;20050;-70
2022/11/03 11:38:40;;;;;;;37.83;26.02;;;;;;;11.18;100.00;101022.03;5104843;27;20035;-70
2022/11/03 11:41:05;;;;;;;36.92;25.88;;;;;;;11.17;100.00;101012.25;5116343;27;20036;-70
2022/11/03 11:43:31;;;;;;;32.45;23.75;;;;;;;11.22;100.00;101020.78;5105191;27;20490;-69
2022/11/03 11:46:21;;;;;;;38.03;26.25;;;;;;;11.23;100.00;101017.13;5123874;27;20023;-68
2022/11/03 11:48:55;;;;;;;35.22;25.48;;;;;;;11.25;100.00;101012.50;5121524;27;20691;-68
2022/11/03 11:51:21;;;;;;;;;;;;;;;11.24;100.00;101020.66;5113274;27;20091;-70
2022/11/03 11:53:48;;;;;;;36.45;25.52;;;;;;;11.18;100.00;101005.91;5121931;27;20005;-70
2022/11/03 11:56:17;;;;;;;35.83;25.85;;;;;;;11.17;100.00;101000.66;5120904;27;20061;-68
2022/11/03 11:58:48;;;;;;;37.40;26.65;;;;;;;11.12;100.00;100982.22;5110667;27;20465;-69